Time;durP1;ratioP1;P1;durP2;ratioP2;P2;SDS_P1;SDS_P2;PMS_P1;PMS_P2;Temp;Humidity;BMP_temperature;BMP_pressure;BME280_temperature;BME280_humidity;BME280_pressure;Samples;Min_cycle;Max_cycle;Signal;HPM_P1;HPM_P2
2022/02/17 00:02:14;;;;;;;38.77;27.47;;;;;;;4.62;100.00;99712.98;1434411;91;22233;-87
2022/02/17 00:04:40;;;;;;;37.40;26.50;;;;;;;4.63;100.00;99712.98;1432689;91;22469;-88
2022/02/17 00:07:06;;;;;;;42.13;26.97;;;;;;;4.65;100.00;99708.91;1437131;91;21523;-88
2022/02/17 00:09:32;;;;;;;40.20;25.93;;;;;;;4.61;100.00;99702.27;1436745;91;23521;-88
2022/02/17 00:11:59;;;;;;;45.03;27.90;;;;;;;4.60;100.00;99701.41;1434088;91;21390;-88
2022/02/17 00:14:25;;;;;;;36.20;24.20;;;;;;;4.60;100.00;99707.14;1432642;90;21466;-88
2022/02/17 00:16:54;;;;;;;32.73;24.17;;;;;;;4.59;100.00;99712.05;1438114;91;21436;-88
2022/02/17 00:19:21;;;;;;;43.97;27.23;;;;;;;4.59;100.00;99709.42;1433107;90;21516;-89
2022/02/17 00:21:49;;;;;;;38.57;26.73;;;;;;;4.61;99.76;99711.45;1442871;90;21530;-88
2022/02/17 00:24:17;;;;;;;44.20;26.97;;;;;;;4.58;99.48;99716.45;1438521;90;21449;-88
2022/02/17 00:26:43;;;;;;;43.27;29.50;;;;;;;4.56;99.57;99714.92;1437162;90;21420;-88
2022/02/17 00:29:11;;;;;;;44.83;28.80;;;;;;;4.44;100.00;99701.87;1440878;90;23712;-88
2022/02/17 00:31:39;;;;;;;39.20;25.50;;;;;;;4.46;99.80;99709.13;1445632;90;21546;-89
2022/02/17 00:34:05;;;;;;;41.80;27.27;;;;;;;4.44;100.00;99707.11;1444609;90;21516;-86
2022/02/17 00:36:32;;;;;;;42.00;27.20;;;;;;;4.43;100.00;99705.45;1440994;90;21538;-88
2022/02/17 00:38:58;;;;;;;39.63;26.43;;;;;;;4.45;100.00;99702.69;1445544;90;21532;-89
2022/02/17 00:41:26;;;;;;;43.87;28.63;;;;;;;4.48;100.00;99699.81;1438629;90;22454;-89
2022/02/17 00:43:52;;;;;;;42.20;27.63;;;;;;;4.50;100.00;99700.53;1447886;90;22549;-89
2022/02/17 00:46:19;;;;;;;40.47;27.43;;;;;;;4.52;100.00;99692.90;1441336;90;21928;-89
2022/02/17 00:48:45;;;;;;;43.97;28.57;;;;;;;4.55;100.00;99687.06;1433263;91;22343;-90
2022/02/17 00:51:14;;;;;;;40.97;27.97;;;;;;;4.58;100.00;99684.19;1426664;91;23417;-89
2022/02/17 00:53:40;;;;;;;48.90;29.63;;;;;;;4.60;100.00;99675.69;1430454;91;21728;-88
2022/02/17 00:56:07;;;;;;;45.17;30.07;;;;;;;4.62;100.00;99671.16;1432132;91;21427;-87
2022/02/17 00:58:33;;;;;;;40.20;29.00;;;;;;;4.64;100.00;99661.39;1429997;91;21457;-86
2022/02/17 01:00:59;;;;;;;53.37;30.63;;;;;;;4.63;100.00;99658.40;1400923;92;21445;-87
2022/02/17 01:03:26;;;;;;;44.77;27.77;;;;;;;4.64;100.00;99653.04;1392187;93;21519;-87
2022/02/17 01:05:52;;;;;;;40.87;27.07;;;;;;;4.69;100.00;99644.77;1400348;92;21401;-87
2022/02/17 01:08:18;;;;;;;37.87;27.17;;;;;;;4.75;100.00;99632.00;1402042;93;21519;-86
2022/02/17 01:10:44;;;;;;;36.47;26.67;;;;;;;4.83;100.00;99630.02;1404611;93;21567;-87
2022/02/17 01:13:10;;;;;;;43.07;26.17;;;;;;;4.91;100.00;99611.84;1395498;94;21496;-89
2022/02/17 01:15:37;;;;;;;41.67;28.33;;;;;;;5.00;100.00;99611.54;1412703;92;23434;-86
2022/02/17 01:18:04;;;;;;;39.43;25.50;;;;;;;5.05;100.00;99602.80;1391763;92;21600;-86
2022/02/17 01:20:31;;;;;;;37.80;27.87;;;;;;;5.09;100.00;99608.61;1412760;93;21430;-88
2022/02/17 01:22:57;;;;;;;38.90;27.07;;;;;;;5.11;100.00;99593.09;1407699;93;22362;-87
2022/02/17 01:25:23;;;;;;;35.93;25.30;;;;;;;5.17;100.00;99607.47;1384996;94;21406;-86
2022/02/17 01:27:51;;;;;;;40.63;26.77;;;;;;;5.17;100.00;99592.55;1407105;92;21371;-87
2022/02/17 01:30:18;;;;;;;44.10;28.63;;;;;;;5.18;100.00;99581.12;1407917;92;21407;-89
2022/02/17 01:32:44;;;;;;;41.07;28.27;;;;;;;5.18;100.00;99572.42;1390144;94;21583;-89
2022/02/17 01:35:10;;;;;;;41.03;27.67;;;;;;;5.16;100.00;99574.34;1406545;92;21630;-87
2022/02/17 01:37:36;;;;;;;42.63;27.77;;;;;;;5.12;100.00;99562.44;1394299;94;21598;-87
2022/02/17 01:40:05;;;;;;;41.53;27.50;;;;;;;5.12;100.00;99567.69;1409037;92;21435;-86
2022/02/17 01:42:31;;;;;;;36.43;25.97;;;;;;;5.12;100.00;99568.99;1390194;94;21583;-86
2022/02/17 01:44:57;;;;;;;35.83;26.00;;;;;;;5.13;100.00;99557.56;1411665;92;21559;-87
2022/02/17 01:47:23;;;;;;;43.70;27.93;;;;;;;5.11;100.00;99551.61;1389300;94;22502;-87
2022/02/17 01:49:49;;;;;;;41.53;27.67;;;;;;;5.10;100.00;99562.59;1388895;94;21412;-87
2022/02/17 01:52:17;;;;;;;36.13;25.60;;;;;;;5.11;100.00;99546.36;1408950;92;21437;-86
2022/02/17 01:54:47;;;;;;;38.73;25.30;;;;;;;5.13;100.00;99530.84;1408005;93;21639;-87
2022/02/17 01:57:18;;;;;;;37.17;24.57;;;;;;;5.15;100.00;99523.67;1405899;93;22939;-88
2022/02/17 01:59:46;;;;;;;37.47;22.40;;;;;;;5.17;100.00;99522.21;1389493;94;21414;-89
2022/02/17 02:02:12;;;;;;;44.93;28.77;;;;;;;5.19;100.00;99532.09;1421822;93;22020;-87
2022/02/17 02:04:38;;;;;;;33.13;23.17;;;;;;;5.23;100.00;99524.78;1410405;92;22323;-87
2022/02/17 02:07:07;;;;;;;36.90;26.03;;;;;;;5.23;100.00;99520.36;1393310;91;21420;-87
2022/02/17 02:09:33;;;;;;;34.70;24.70;;;;;;;5.22;100.00;99508.70;1429160;91;21382;-86
2022/02/17 02:12:00;;;;;;;38.10;24.63;;;;;;;5.23;100.00;99517.73;1406064;92;21405;-86
2022/02/17 02:14:26;;;;;;;36.67;24.90;;;;;;;5.22;100.00;99508.22;1448477;90;22040;-88
2022/02/17 02:16:52;;;;;;;38.80;24.77;;;;;;;5.22;100.00;99504.28;1453508;90;22535;-87
2022/02/17 02:19:21;;;;;;;32.47;23.03;;;;;;;5.21;100.00;99502.63;1407582;90;21604;-87
2022/02/17 02:21:47;;;;;;;33.97;23.90;;;;;;;5.22;100.00;99491.66;1427641;91;21883;-87
2022/02/17 02:24:14;;;;;;;38.47;24.13;;;;;;;5.23;100.00;99495.92;1433447;91;22380;-86
2022/02/17 02:26:41;;;;;;;31.47;20.87;;;;;;;5.24;100.00;99482.69;1430924;91;21493;-87
2022/02/17 02:29:07;;;;;;;32.37;21.80;;;;;;;5.26;100.00;99477.28;1440680;90;22549;-89
2022/02/17 02:31:34;;;;;;;31.93;23.20;;;;;;;5.27;100.00;99460.59;1436003;90;21389;-91
2022/02/17 02:34:00;;;;;;;28.30;19.97;;;;;;;5.26;100.00;99447.11;1438203;90;23638;-87
2022/02/17 02:36:26;;;;;;;31.07;21.13;;;;;;;5.30;99.66;99440.16;1433760;90;21444;-88
2022/02/17 02:38:54;;;;;;;38.87;23.33;;;;;;;5.31;99.41;99441.80;1428859;90;21412;-87
2022/02/17 02:41:20;;;;;;;32.90;20.77;;;;;;;5.26;99.40;99430.88;1427626;90;22073;-88
2022/02/17 02:43:47;;;;;;;33.97;22.43;;;;;;;5.28;99.12;99428.96;1431094;90;22410;-87
2022/02/17 02:46:13;;;;;;;28.93;19.33;;;;;;;5.25;99.12;99406.94;1435764;91;21419;-88
2022/02/17 02:48:39;;;;;;;29.30;20.77;;;;;;;5.26;99.25;99400.71;1426851;91;21561;-89
2022/02/17 02:51:06;;;;;;;35.17;22.97;;;;;;;5.25;99.21;99389.06;1435903;90;22313;-89
2022/02/17 02:53:32;;;;;;;28.90;22.10;;;;;;;5.23;99.37;99385.25;1439820;91;21551;-88
2022/02/17 02:55:59;;;;;;;34.97;22.30;;;;;;;5.18;99.93;99375.19;1429609;91;21420;-89
2022/02/17 02:58:25;;;;;;;32.40;22.63;;;;;;;5.19;99.55;99361.59;1425285;90;21412;-88
2022/02/17 03:00:51;;;;;;;34.90;20.87;;;;;;;5.19;100.00;99360.28;1434047;90;22380;-91
2022/02/17 03:03:17;;;;;;;31.47;21.60;;;;;;;5.19;100.00;99361.10;1427197;91;21485;-88
2022/02/17 03:05:45;;;;;;;33.97;24.17;;;;;;;5.20;100.00;99368.48;1442050;90;21433;-88
2022/02/17 03:08:12;;;;;;;37.03;25.17;;;;;;;5.19;100.00;99371.59;1432838;90;21521;-85
2022/02/17 03:10:38;;;;;;;36.90;25.90;;;;;;;5.17;100.00;99363.02;1436608;90;21382;-92
2022/02/17 03:13:04;;;;;;;38.33;26.77;;;;;;;5.17;100.00;99375.31;1434888;91;21426;-89
2022/02/17 03:15:30;;;;;;;32.90;23.47;;;;;;;5.16;100.00;99378.92;1433612;90;21331;-89
2022/02/17 03:17:56;;;;;;;39.37;29.97;;;;;;;5.16;100.00;99378.43;1434409;90;21337;-89
2022/02/17 03:20:23;;;;;;;35.07;25.17;;;;;;;5.15;100.00;99375.93;1446218;89;21501;-89
2022/02/17 03:22:49;;;;;;;39.97;26.07;;;;;;;5.13;100.00;99376.58;1447545;90;21515;-88
2022/02/17 03:25:16;;;;;;;40.70;28.20;;;;;;;5.14;100.00;99367.73;1443428;90;22284;-88
2022/02/17 03:27:42;;;;;;;38.70;28.27;;;;;;;5.14;100.00;99366.41;1450710;90;21397;-90
2022/02/17 03:30:11;;;;;;;40.07;28.47;;;;;;;5.15;100.00;99365.44;1451092;90;22394;-86
2022/02/17 03:32:39;;;;;;;42.63;31.17;;;;;;;5.18;100.00;99373.06;1447532;90;22217;-86
2022/02/17 03:35:07;;;;;;;42.30;29.30;;;;;;;5.18;100.00;99373.88;1452914;90;21464;-87
2022/02/17 03:37:34;;;;;;;46.80;29.27;;;;;;;5.22;100.00;99370.49;1449861;90;21902;-87
2022/02/17 03:40:00;;;;;;;45.47;32.43;;;;;;;5.24;100.00;99377.75;1444764;89;21448;-86
2022/02/17 03:42:26;;;;;;;43.50;30.47;;;;;;;5.25;100.00;99370.20;1450246;90;21412;-86
2022/02/17 03:44:52;;;;;;;39.97;28.67;;;;;;;5.29;100.00;99378.13;1410920;90;21397;-87
2022/02/17 03:47:20;;;;;;;39.93;28.87;;;;;;;5.35;100.00;99368.42;1429966;89;21578;-87
2022/02/17 03:49:46;;;;;;;43.30;29.80;;;;;;;5.38;100.00;99354.16;1421935;90;21641;-88
2022/02/17 03:52:12;;;;;;;43.17;29.87;;;;;;;5.41;99.79;99352.59;1449370;90;22299;-87
2022/02/17 03:54:38;;;;;;;40.37;28.17;;;;;;;5.46;99.42;99352.16;1447914;90;21546;-87
2022/02/17 03:57:05;;;;;;;38.00;26.23;;;;;;;5.47;99.06;99356.43;1449443;89;21420;-88
2022/02/17 03:59:31;;;;;;;34.80;26.33;;;;;;;5.50;98.60;99348.30;1449736;90;21426;-87
2022/02/17 04:01:57;;;;;;;38.93;27.50;;;;;;;5.52;98.29;99326.17;1444970;90;22365;-88
2022/02/17 04:04:23;;;;;;;41.27;28.37;;;;;;;5.55;98.02;99306.69;1448690;90;21433;-88
2022/02/17 04:06:49;;;;;;;37.57;26.83;;;;;;;5.56;97.92;99296.55;1443011;89;21574;-90
2022/02/17 04:09:17;;;;;;;41.70;24.80;;;;;;;5.54;97.72;99297.17;1440876;90;21383;-87
2022/02/17 04:11:43;;;;;;;44.47;27.57;;;;;;;5.56;97.56;99326.73;1444771;89;21493;-87
2022/02/17 04:14:09;;;;;;;39.80;27.13;;;;;;;5.58;97.46;99318.21;1431157;91;22470;-87
2022/02/17 04:16:35;;;;;;;42.53;27.77;;;;;;;5.58;97.38;99305.09;1427474;91;21470;-86
2022/02/17 04:19:01;;;;;;;41.67;27.30;;;;;;;5.58;97.19;99297.21;1422368;91;21516;-86
2022/02/17 04:21:27;;;;;;;43.43;28.20;;;;;;;5.59;97.00;99287.89;1421062;91;21317;-88
2022/02/17 04:23:53;;;;;;;45.53;29.40;;;;;;;5.59;96.87;99290.52;1451655;90;22388;-87
2022/02/17 04:26:21;;;;;;;39.60;25.70;;;;;;;5.60;96.75;99302.66;1436196;89;21339;-87
2022/02/17 04:28:48;;;;;;;41.50;27.30;;;;;;;5.63;96.49;99306.80;1435294;90;21345;-88
2022/02/17 04:31:14;;;;;;;39.77;27.47;;;;;;;5.66;96.29;99305.20;1448941;89;21420;-87
2022/02/17 04:33:42;;;;;;;43.73;26.67;;;;;;;5.69;96.08;99309.34;1424147;89;21353;-88
2022/02/17 04:36:09;;;;;;;44.13;25.67;;;;;;;5.71;95.96;99297.73;1441623;90;21457;-89
2022/02/17 04:38:36;;;;;;;40.07;27.00;;;;;;;5.72;95.98;99290.19;1448738;90;21353;-85
2022/02/17 04:43:47;;;;;;;47.20;26.50;;;;;;;5.72;96.43;99278.86;1430464;89;22372;-87
2022/02/17 04:46:14;;;;;;;39.47;25.23;;;;;;;5.70;96.62;99275.09;1438675;90;21324;-89
2022/02/17 04:48:40;;;;;;;39.83;27.03;;;;;;;5.67;96.92;99267.50;1425496;90;21382;-89
2022/02/17 04:51:06;;;;;;;39.87;25.10;;;;;;;5.65;97.29;99261.56;1411921;90;21404;-90
2022/02/17 04:53:33;;;;;;;39.20;27.70;;;;;;;5.64;97.33;99263.86;1412700;90;21583;-89
2022/02/17 04:56:00;;;;;;;37.87;26.90;;;;;;;5.64;97.53;99266.48;1440561;90;22388;-88
2022/02/17 04:58:26;;;;;;;41.93;27.97;;;;;;;5.59;98.11;99251.64;1424983;89;21331;-88
2022/02/17 05:00:54;;;;;;;40.47;26.47;;;;;;;5.56;98.47;99238.81;1422883;91;21552;-87
2022/02/17 05:03:24;;;;;;;38.50;24.43;;;;;;;5.52;98.77;99233.48;1422461;92;22307;-87
2022/02/17 05:05:48;;;;;;;35.57;23.27;;;;;;;5.48;99.43;99217.70;1419956;90;22454;-87
2022/02/17 05:08:14;;;;;;;37.90;25.17;;;;;;;5.39;100.00;99211.03;1443497;90;21550;-87
2022/02/17 05:10:40;;;;;;;40.03;24.43;;;;;;;5.37;100.00;99212.97;1443781;90;21711;-87
2022/02/17 05:13:06;;;;;;;34.57;23.40;;;;;;;5.33;100.00;99206.36;1426874;90;21442;-88
2022/02/17 05:15:32;;;;;;;41.53;26.37;;;;;;;5.31;100.00;99201.73;1414884;91;21390;-87
2022/02/17 05:17:58;;;;;;;39.10;25.90;;;;;;;5.25;100.00;99193.13;1414887;91;21501;-86
2022/02/17 05:20:25;;;;;;;40.70;27.97;;;;;;;5.26;100.00;99197.40;1423808;92;21560;-87
2022/02/17 05:22:51;;;;;;;34.57;24.07;;;;;;;5.23;100.00;99207.36;1420228;91;21440;-86
2022/02/17 05:25:17;;;;;;;38.60;25.20;;;;;;;5.23;100.00;99218.67;1418868;90;21619;-87
2022/02/17 05:27:43;;;;;;;40.00;25.23;;;;;;;5.20;100.00;99211.91;1429371;90;22646;-88
2022/02/17 05:30:10;;;;;;;37.67;25.97;;;;;;;5.19;100.00;99222.56;1437848;90;21383;-87
2022/02/17 05:32:40;;;;;;;40.53;25.27;;;;;;;5.22;100.00;99209.66;1448808;89;21434;-87
2022/02/17 05:35:08;;;;;;;33.70;25.00;;;;;;;5.22;100.00;99206.54;1440649;90;21427;-85
2022/02/17 05:37:40;;;;;;;33.43;22.50;;;;;;;5.22;100.00;99206.54;1427048;91;21450;-85
2022/02/17 05:40:10;;;;;;;35.13;24.73;;;;;;;5.24;100.00;99209.85;1426390;91;22159;-86
2022/02/17 05:42:36;;;;;;;34.83;22.13;;;;;;;5.25;100.00;99202.31;1425445;91;21884;-84
2022/02/17 05:45:05;;;;;;;34.87;24.93;;;;;;;5.28;100.00;99209.90;1424497;92;21582;-86
2022/02/17 05:47:31;;;;;;;35.07;23.40;;;;;;;5.26;100.00;99205.27;1424841;91;21316;-85
2022/02/17 05:49:57;;;;;;;32.90;21.37;;;;;;;5.26;100.00;99200.02;1426631;92;21420;-85
2022/02/17 05:52:23;;;;;;;34.20;22.30;;;;;;;5.27;100.00;99179.89;1411042;90;21486;-86
2022/02/17 05:54:49;;;;;;;30.87;20.63;;;;;;;5.29;100.00;99164.81;1444688;89;21390;-86
2022/02/17 05:57:15;;;;;;;32.30;21.37;;;;;;;5.30;100.00;99158.61;1449684;90;22326;-86
2022/02/17 05:59:43;;;;;;;33.33;22.80;;;;;;;5.30;100.00;99151.56;1440347;90;21899;-83
2022/02/17 06:02:09;;;;;;;33.47;21.80;;;;;;;5.33;100.00;99157.83;1434909;90;21442;-85
2022/02/17 06:04:35;;;;;;;29.27;20.60;;;;;;;5.34;99.99;99171.27;1408376;90;21399;-85
2022/02/17 06:07:01;;;;;;;37.20;24.30;;;;;;;5.36;99.85;99162.78;1443727;90;21413;-86
2022/02/17 06:09:28;;;;;;;35.97;21.53;;;;;;;5.39;99.43;99156.42;1405053;89;21434;-89
2022/02/17 06:11:53;;;;;;;35.10;23.70;;;;;;;5.41;99.02;99172.86;1432668;90;22247;-90
2022/02/17 06:14:20;;;;;;;33.03;21.67;;;;;;;5.46;98.79;99177.65;1447236;90;21405;-90
2022/02/17 06:16:46;;;;;;;36.40;23.10;;;;;;;5.48;98.55;99176.53;1425946;91;22456;-89
2022/02/17 06:19:12;;;;;;;37.33;24.10;;;;;;;5.51;98.28;99172.30;1424586;91;21405;-83
2022/02/17 06:21:38;;;;;;;35.27;23.13;;;;;;;5.53;98.06;99161.67;1428254;91;22328;-84
2022/02/17 06:24:05;;;;;;;43.23;26.83;;;;;;;5.54;98.06;99165.94;1425685;91;21338;-82
2022/02/17 06:26:32;;;;;;;36.07;24.27;;;;;;;5.58;97.99;99161.58;1426927;91;21524;-88
2022/02/17 06:28:58;;;;;;;40.20;22.37;;;;;;;5.61;97.63;99148.63;1425859;91;21375;-86
2022/02/17 06:31:25;;;;;;;41.30;26.23;;;;;;;5.64;97.21;99153.11;1393458;93;21605;-87
2022/02/17 06:33:51;;;;;;;38.13;23.17;;;;;;;5.66;97.35;99152.95;1391286;94;21590;-87
2022/02/17 06:36:17;;;;;;;35.80;24.93;;;;;;;5.69;97.72;99159.22;1395373;94;22360;-88
2022/02/17 06:38:45;;;;;;;39.50;26.13;;;;;;;5.65;98.01;99156.56;1392830;94;21948;-88
2022/02/17 06:41:15;;;;;;;40.73;25.40;;;;;;;5.63;98.61;99157.19;1394524;94;21391;-87
2022/02/17 06:43:41;;;;;;;43.23;26.17;;;;;;;5.61;99.19;99165.69;1385488;94;21436;-86
2022/02/17 06:46:07;;;;;;;48.10;29.80;;;;;;;5.59;99.51;99159.78;1386956;94;21376;-86
2022/02/17 06:48:34;;;;;;;46.13;29.70;;;;;;;5.56;99.80;99159.58;1388015;94;21471;-87
2022/02/17 06:51:00;;;;;;;46.33;29.10;;;;;;;5.56;99.82;99164.00;1396517;92;21567;-80
2022/02/17 06:53:26;;;;;;;44.97;27.03;;;;;;;5.55;100.00;99171.06;1407506;93;21442;-80
2022/02/17 06:55:52;;;;;;;50.07;30.47;;;;;;;5.57;100.00;99168.27;1406112;93;22416;-80
2022/02/17 06:58:18;;;;;;;47.60;30.20;;;;;;;5.59;99.84;99160.59;1409061;93;21554;-81
2022/02/17 07:00:45;;;;;;;52.20;30.10;;;;;;;5.64;99.37;99133.92;1410007;93;21465;-81
2022/02/17 07:03:11;;;;;;;49.27;28.70;;;;;;;5.67;98.80;99113.94;1414327;93;21420;-80
2022/02/17 07:05:37;;;;;;;45.67;27.77;;;;;;;5.74;99.08;99108.41;1408831;91;21372;-81
2022/02/17 07:08:04;;;;;;;47.93;30.97;;;;;;;5.77;98.92;99092.36;1407420;93;22234;-80
2022/02/17 07:13:15;;;;;;;47.80;30.07;;;;;;;5.80;98.87;99077.63;1412824;92;21437;-81
2022/02/17 07:15:43;;;;;;;41.00;26.30;;;;;;;5.83;98.51;99092.25;1414607;93;21363;-80
2022/02/17 07:18:10;;;;;;;50.30;29.93;;;;;;;5.85;98.60;99085.88;1407817;92;21437;-81
2022/02/17 07:20:38;;;;;;;46.43;29.90;;;;;;;5.86;98.21;99093.27;1410415;91;21564;-81
2022/02/17 07:23:05;;;;;;;41.33;26.10;;;;;;;5.87;98.43;99088.37;1418296;92;21387;-81
2022/02/17 07:25:32;;;;;;;42.37;27.67;;;;;;;5.86;98.21;99096.71;1421776;92;21321;-81
2022/02/17 07:27:59;;;;;;;36.57;23.10;;;;;;;5.87;97.79;99083.94;1445344;90;22461;-81
2022/02/17 07:30:26;;;;;;;38.47;25.17;;;;;;;5.93;97.28;99069.84;1444119;90;21426;-81
2022/02/17 07:32:52;;;;;;;36.27;25.00;;;;;;;5.99;97.31;99076.69;1441914;89;21367;-80
2022/02/17 07:35:18;;;;;;;39.60;25.73;;;;;;;6.01;96.35;99058.98;1428614;90;21410;-80
2022/02/17 07:37:45;;;;;;;37.77;24.93;;;;;;;6.03;96.34;99048.31;1430798;90;21457;-80
2022/02/17 07:40:13;;;;;;;36.80;24.27;;;;;;;6.03;96.68;99020.73;1436767;89;22313;-81
2022/02/17 07:42:41;;;;;;;39.70;23.70;;;;;;;6.06;95.54;99021.73;1428433;90;21472;-79
2022/02/17 07:45:09;;;;;;;36.10;24.17;;;;;;;6.16;95.38;99017.23;1436160;90;21390;-79
2022/02/17 07:47:45;;;;;;;32.07;21.73;;;;;;;6.23;94.25;99017.42;1429212;91;22758;-79
2022/02/17 07:50:09;;;;;;;30.07;20.07;;;;;;;6.26;93.16;99015.80;1377345;91;22250;-79
2022/02/17 07:52:35;;;;;;;31.40;21.20;;;;;;;6.28;92.41;98990.20;1381107;91;21355;-78
2022/02/17 07:55:01;;;;;;;27.10;20.37;;;;;;;6.28;92.74;98984.45;1415989;91;21445;-79
2022/02/17 07:57:27;;;;;;;43.10;22.93;;;;;;;6.29;92.34;99004.98;1412345;91;21614;-79
2022/02/17 07:59:53;;;;;;;32.17;21.43;;;;;;;6.30;92.22;98977.25;1417082;91;21515;-78
2022/02/17 08:02:19;;;;;;;34.90;21.23;;;;;;;6.28;91.86;98956.87;1421622;91;22425;-78
2022/02/17 08:04:45;;;;;;;31.70;20.57;;;;;;;6.28;91.26;98958.18;1423748;91;21531;-78
2022/02/17 08:07:11;;;;;;;32.03;20.33;;;;;;;6.31;91.52;98943.91;1427866;91;21432;-78
2022/02/17 08:09:38;;;;;;;29.73;19.53;;;;;;;6.33;91.08;98937.52;1428360;91;22378;-80
2022/02/17 08:12:05;;;;;;;26.00;19.17;;;;;;;6.33;90.97;98932.27;1424613;91;21516;-78
2022/02/17 08:14:31;;;;;;;29.10;19.70;;;;;;;6.32;91.62;98956.06;1420103;91;21422;-78
2022/02/17 08:16:57;;;;;;;27.50;18.63;;;;;;;6.29;91.38;98955.88;1415473;91;21414;-78
2022/02/17 08:19:23;;;;;;;29.83;19.70;;;;;;;6.30;91.02;98956.23;1419847;91;21464;-78
2022/02/17 08:21:49;;;;;;;29.93;18.67;;;;;;;6.28;92.10;98947.67;1415881;91;23712;-78
2022/02/17 08:24:16;;;;;;;23.53;17.13;;;;;;;6.28;91.43;98948.17;1407869;92;21421;-79
2022/02/17 08:26:43;;;;;;;27.43;18.93;;;;;;;6.25;91.29;98946.67;1406122;92;21399;-79
2022/02/17 08:29:11;;;;;;;33.23;19.27;;;;;;;6.28;91.47;98949.48;1410461;92;23431;-78
2022/02/17 08:31:38;;;;;;;27.40;18.30;;;;;;;6.30;91.18;98972.00;1407576;92;21406;-78
2022/02/17 08:34:05;;;;;;;26.63;18.03;;;;;;;6.35;91.19;98975.45;1407936;91;21535;-79
2022/02/17 08:36:34;;;;;;;24.83;16.50;;;;;;;6.36;90.80;98979.75;1422165;91;21398;-79
2022/02/17 08:39:01;;;;;;;23.63;16.73;;;;;;;6.37;90.81;98989.77;1446721;92;22410;-79
2022/02/17 08:41:27;;;;;;;28.67;17.97;;;;;;;6.40;90.99;98973.19;1406068;92;21725;-80
2022/02/17 08:43:53;;;;;;;22.67;14.47;;;;;;;6.41;91.96;98976.14;1407908;92;21522;-79
2022/02/17 08:46:20;;;;;;;29.47;18.17;;;;;;;6.41;92.12;98979.27;1414526;91;22504;-79
2022/02/17 08:48:47;;;;;;;27.77;17.17;;;;;;;6.44;91.80;98935.58;1418986;91;21609;-79
2022/02/17 08:51:16;;;;;;;28.57;18.07;;;;;;;6.51;91.73;98906.39;1410416;91;21520;-79
2022/02/17 08:53:42;;;;;;;29.07;19.03;;;;;;;6.57;91.41;98872.89;1411707;91;21594;-79
2022/02/17 08:56:08;;;;;;;25.23;16.73;;;;;;;6.63;91.10;98881.45;1413130;91;21920;-79
2022/02/17 08:58:34;;;;;;;24.30;15.00;;;;;;;6.65;90.13;98882.62;1401449;91;21867;-79
2022/02/17 09:01:00;;;;;;;28.63;17.87;;;;;;;6.65;90.93;98879.98;1413268;91;21414;-79
2022/02/17 09:03:27;;;;;;;24.37;16.30;;;;;;;6.70;91.25;98890.83;1416110;91;21676;-79
2022/02/17 09:05:53;;;;;;;26.50;15.80;;;;;;;6.69;90.72;98899.20;1407435;92;21575;-79
2022/02/17 09:08:21;;;;;;;24.67;16.90;;;;;;;6.67;91.97;98857.78;1416368;91;21377;-79
2022/02/17 09:10:48;;;;;;;24.17;15.90;;;;;;;6.57;90.67;98874.20;1414778;91;21328;-78
2022/02/17 09:13:15;;;;;;;26.70;17.47;;;;;;;6.52;92.65;98888.31;1414821;91;21435;-79
2022/02/17 09:15:42;;;;;;;21.87;16.33;;;;;;;6.46;93.03;98895.52;1415999;91;21417;-78
2022/02/17 09:18:08;;;;;;;24.43;15.73;;;;;;;6.46;94.60;98891.58;1413498;91;21450;-78
2022/02/17 09:20:36;;;;;;;21.87;15.87;;;;;;;6.43;94.50;98891.90;1414019;91;21391;-79
2022/02/17 09:23:03;;;;;;;25.03;15.17;;;;;;;6.47;94.69;98864.30;1416838;91;21687;-79
2022/02/17 09:25:29;;;;;;;24.77;17.13;;;;;;;6.48;94.24;98879.93;1419402;91;21435;-79
2022/02/17 09:27:56;;;;;;;27.27;16.87;;;;;;;6.54;94.66;98849.06;1423594;91;21565;-78
2022/02/17 09:30:22;;;;;;;22.20;15.90;;;;;;;6.63;94.93;98815.73;1422177;90;21435;-79
2022/02/17 09:32:48;;;;;;;25.73;17.20;;;;;;;6.82;94.62;98821.66;1416401;91;21362;-79
2022/02/17 09:35:14;;;;;;;21.37;14.13;;;;;;;6.87;93.91;98828.58;1421084;92;22303;-80
2022/02/17 09:37:40;;;;;;;21.03;14.90;;;;;;;6.86;93.88;98833.52;1416043;92;21444;-78
2022/02/17 09:40:08;;;;;;;24.50;14.63;;;;;;;6.87;93.75;98836.47;1415222;92;21451;-80
2022/02/17 09:42:38;;;;;;;23.00;17.27;;;;;;;7.06;93.29;98826.13;1419798;92;21391;-81
2022/02/17 09:45:08;;;;;;;20.37;13.97;;;;;;;7.10;93.31;98818.23;1417651;90;21473;-80
2022/02/17 09:47:39;;;;;;;21.77;15.20;;;;;;;7.05;92.17;98816.11;1424364;92;21562;-80
2022/02/17 09:50:09;;;;;;;19.48;15.18;;;;;;;6.99;91.78;98800.95;1422717;92;22368;-80
2022/02/17 09:52:37;;;;;;;23.17;15.47;;;;;;;6.97;92.74;98803.77;1420337;92;22457;-80
2022/02/17 09:55:12;;;;;;;22.97;14.57;;;;;;;6.98;93.21;98783.05;1432180;90;21555;-80
2022/02/17 09:57:41;;;;;;;16.80;12.43;;;;;;;7.11;92.86;98752.31;1435542;91;21414;-80
2022/02/17 10:00:11;;;;;;;17.87;13.47;;;;;;;7.30;90.55;98745.03;1433237;91;21415;-80
2022/02/17 10:02:38;;;;;;;21.55;13.00;;;;;;;8.14;84.61;98734.34;1441342;91;21580;-80
2022/02/17 10:05:07;;;;;;;16.93;12.43;;;;;;;7.91;83.93;98732.50;1446438;91;21558;-81
2022/02/17 10:07:37;;;;;;;16.47;10.60;;;;;;;7.75;83.92;98756.27;1428564;91;21628;-80
2022/02/17 10:10:08;;;;;;;18.27;11.68;;;;;;;7.66;82.23;98766.01;1435416;91;22354;-81
2022/02/17 10:13:04;;;;;;;16.70;10.95;;;;;;;7.63;81.45;98757.13;1436849;89;21944;-81
2022/02/17 10:15:39;;;;;;;18.40;11.53;;;;;;;7.66;81.58;98723.06;1432035;91;21451;-80
2022/02/17 10:18:15;;;;;;;15.63;10.87;;;;;;;7.71;81.86;98724.70;1437687;91;21414;-81
2022/02/17 10:21:11;;;;;;;15.70;10.77;;;;;;;7.98;80.35;98721.28;1431260;90;21533;-81
2022/02/17 10:24:00;;;;;;;14.20;10.50;;;;;;;8.02;79.02;98708.88;1438343;90;21517;-81
2022/02/17 10:26:28;;;;;;;16.20;10.27;;;;;;;8.02;77.51;98690.94;1452367;90;21331;-81
2022/02/17 10:28:59;;;;;;;15.33;9.43;;;;;;;7.98;77.89;98690.48;1444778;90;21427;-81
2022/02/17 10:31:30;;;;;;;12.37;9.30;;;;;;;7.98;77.32;98674.67;1438165;90;21390;-80
2022/02/17 10:34:00;;;;;;;12.90;9.83;;;;;;;8.02;75.57;98661.46;1447342;90;21347;-79
2022/02/17 10:36:42;;;;;;;17.17;9.93;;;;;;;8.01;75.25;98673.00;1435686;90;22389;-81
2022/02/17 10:39:15;;;;;;;14.10;9.33;;;;;;;8.02;75.99;98654.88;1441268;90;21435;-81
2022/02/17 10:41:57;;;;;;;13.30;9.07;;;;;;;8.02;76.00;98650.92;1442388;90;22413;-81
2022/02/17 10:44:30;;;;;;;17.07;9.43;;;;;;;8.04;75.45;98673.97;1446350;90;21405;-81
2022/02/17 10:46:59;;;;;;;16.77;10.97;;;;;;;8.10;75.17;98635.06;1446475;90;21487;-82
2022/02/17 10:49:26;;;;;;;13.83;8.77;;;;;;;8.17;76.23;98651.48;1442171;90;21472;-81
2022/02/17 10:51:55;;;;;;;15.43;11.23;;;;;;;8.19;75.85;98638.97;1420239;90;21502;-82
2022/02/17 10:54:24;;;;;;;15.60;10.33;;;;;;;8.22;75.89;98625.44;1407909;90;22470;-84
2022/02/17 10:56:51;;;;;;;16.70;11.47;;;;;;;8.22;75.36;98625.44;1440552;90;21259;-82
2022/02/17 11:02:05;;;;;;;16.87;12.07;;;;;;;8.29;76.93;98629.83;1432394;90;21583;-83
2022/02/17 11:04:32;;;;;;;15.60;11.93;;;;;;;8.39;76.44;98615.11;1431678;90;21391;-82
2022/02/17 11:06:59;;;;;;;17.57;12.93;;;;;;;8.47;75.88;98613.73;1433155;90;21428;-82
2022/02/17 11:09:25;;;;;;;13.83;10.00;;;;;;;8.53;75.43;98611.70;1440449;90;21384;-81
2022/02/17 11:11:54;;;;;;;15.33;10.77;;;;;;;8.57;74.63;98591.90;1446072;90;21501;-81
2022/02/17 11:14:41;;;;;;;16.20;10.20;;;;;;;8.67;74.35;98586.35;1436264;89;21384;-82
2022/02/17 11:17:09;;;;;;;23.20;12.20;;;;;;;8.80;72.70;98585.23;1425366;89;21588;-82
2022/02/17 11:19:36;;;;;;;14.87;10.07;;;;;;;8.83;71.90;98591.94;1412041;92;21412;-81
2022/02/17 11:22:04;;;;;;;15.77;11.40;;;;;;;8.87;71.95;98593.23;1422229;90;22109;-82
2022/02/17 11:24:52;;;;;;;15.83;11.03;;;;;;;8.88;71.71;98563.72;1437086;90;21508;-83
2022/02/17 11:27:20;;;;;;;16.93;11.13;;;;;;;8.91;72.45;98550.16;1442498;90;21525;-83
2022/02/17 11:29:47;;;;;;;14.23;10.13;;;;;;;8.98;72.84;98560.31;1410627;91;21544;-82
2022/02/17 11:32:18;;;;;;;14.70;10.03;;;;;;;9.11;72.33;98553.05;1437080;90;21494;-83